createdAt,value
2022-11-25T00:00:53.861Z,4.23
2022-11-25T00:03:20.567Z,4.21
2022-11-25T00:05:47.134Z,4.29
2022-11-25T00:08:13.742Z,4.29
2022-11-25T00:10:40.238Z,4.39
2022-11-25T00:13:06.920Z,4.50
2022-11-25T00:15:34.167Z,4.74
2022-11-25T00:18:00.648Z,4.75
2022-11-25T00:20:27.230Z,4.82
2022-11-25T00:22:53.778Z,4.79
2022-11-25T00:25:20.375Z,4.89
2022-11-25T00:27:46.953Z,4.79
2022-11-25T00:30:13.950Z,4.70
2022-11-25T00:32:40.455Z,4.67
2022-11-25T00:35:07.415Z,4.61
2022-11-25T00:37:33.981Z,4.66
2022-11-25T00:40:00.538Z,4.65
2022-11-25T00:42:45.660Z,4.64
2022-11-25T00:45:12.490Z,4.69
2022-11-25T00:47:38.980Z,4.79
2022-11-25T00:50:06.049Z,4.79
2022-11-25T00:52:37.127Z,4.76
2022-11-25T00:55:04.657Z,4.85
2022-11-25T00:57:31.456Z,4.75
2022-11-25T00:59:58.043Z,4.70
2022-11-25T01:02:24.630Z,4.64
2022-11-25T01:04:51.329Z,4.52
2022-11-25T01:07:18.507Z,4.47
2022-11-25T01:09:45.280Z,4.41
2022-11-25T01:12:11.952Z,4.59
2022-11-25T01:14:39.227Z,4.73
2022-11-25T01:17:06.061Z,4.78
2022-11-25T01:19:33.339Z,4.87
2022-11-25T01:22:00.254Z,4.79
2022-11-25T01:24:26.820Z,4.74
2022-11-25T01:26:55.252Z,4.74
2022-11-25T01:29:21.893Z,4.77
2022-11-25T01:31:48.791Z,4.82
2022-11-25T01:34:18.586Z,4.86
2022-11-25T01:36:45.356Z,4.84
2022-11-25T01:39:20.563Z,4.87
2022-11-25T01:41:48.455Z,4.88
2022-11-25T01:44:16.882Z,4.92
2022-11-25T01:46:52.560Z,4.89
2022-11-25T01:50:00.823Z,4.92
2022-11-25T01:52:34.412Z,4.99
2022-11-25T01:55:11.064Z,5.03
2022-11-25T01:58:02.570Z,5.03
2022-11-25T02:00:29.246Z,5.07
2022-11-25T02:02:58.031Z,5.02
2022-11-25T02:05:50.804Z,5.05
2022-11-25T02:08:19.465Z,5.12
2022-11-25T02:10:46.642Z,5.17
2022-11-25T02:13:13.401Z,5.19
2022-11-25T02:15:40.147Z,5.22
2022-11-25T02:18:07.014Z,5.15
2022-11-25T02:20:33.777Z,5.16
2022-11-25T02:23:08.447Z,5.15
2022-11-25T02:25:37.680Z,5.18
2022-11-25T02:28:10.748Z,5.17
2022-11-25T02:30:38.331Z,5.25
2022-11-25T02:33:05.958Z,5.29
2022-11-25T02:35:35.846Z,5.43
2022-11-25T02:38:16.189Z,5.40
2022-11-25T02:40:51.761Z,5.49
2022-11-25T02:43:18.928Z,5.48
2022-11-25T02:45:52.532Z,5.46
2022-11-25T02:48:19.253Z,5.48
2022-11-25T02:50:45.847Z,5.48
2022-11-25T02:53:12.636Z,5.42
2022-11-25T02:55:39.241Z,5.38
2022-11-25T02:58:05.876Z,5.35
2022-11-25T03:00:32.459Z,5.21
2022-11-25T03:02:59.250Z,5.03
2022-11-25T03:05:26.204Z,5.02
2022-11-25T03:07:53.112Z,5.07
2022-11-25T03:10:19.765Z,5.07
2022-11-25T03:12:46.345Z,5.16
2022-11-25T03:15:13.032Z,5.17
2022-11-25T03:17:39.660Z,5.28
2022-11-25T03:20:08.226Z,5.26
2022-11-25T03:22:35.902Z,5.19
2022-11-25T03:25:02.562Z,5.27
2022-11-25T03:27:30.409Z,5.24
2022-11-25T03:29:57.157Z,5.26
2022-11-25T03:32:23.747Z,5.24
2022-11-25T03:34:50.369Z,5.28
2022-11-25T03:37:17.081Z,5.29
2022-11-25T03:39:43.716Z,5.23
2022-11-25T03:42:10.244Z,5.20
2022-11-25T03:44:37.236Z,5.22
2022-11-25T03:47:04.534Z,5.32
2022-11-25T03:49:31.137Z,5.33
2022-11-25T03:51:58.113Z,5.25
2022-11-25T03:54:24.850Z,5.25
2022-11-25T03:56:51.460Z,5.21
2022-11-25T03:59:17.986Z,5.15
2022-11-25T04:01:44.774Z,5.15
2022-11-25T04:04:11.947Z,5.19
2022-11-25T04:06:39.595Z,5.11
2022-11-25T04:09:07.500Z,5.19
2022-11-25T04:11:53.120Z,5.21
2022-11-25T04:14:19.855Z,5.18
2022-11-25T04:16:46.503Z,5.36
2022-11-25T04:19:13.132Z,5.41
2022-11-25T04:21:39.799Z,5.40
2022-11-25T04:24:06.962Z,5.53
2022-11-25T04:26:33.655Z,5.49
2022-11-25T04:29:00.558Z,5.55
2022-11-25T04:31:27.137Z,5.51
2022-11-25T04:33:53.647Z,5.58
2022-11-25T04:36:20.444Z,5.54
2022-11-25T04:38:47.018Z,5.47
2022-11-25T04:41:13.669Z,5.48
2022-11-25T04:43:40.495Z,5.46
2022-11-25T04:46:14.008Z,5.42
2022-11-25T04:48:41.090Z,5.31
2022-11-25T04:51:07.808Z,5.24
2022-11-25T04:53:34.328Z,5.26
2022-11-25T04:56:00.822Z,5.17
2022-11-25T04:58:45.605Z,5.09
2022-11-25T05:01:12.264Z,5.00
2022-11-25T05:03:43.582Z,5.01
2022-11-25T05:06:13.138Z,5.04
2022-11-25T05:08:39.579Z,5.17
2022-11-25T05:11:06.064Z,5.38
2022-11-25T05:13:32.532Z,5.36
2022-11-25T05:16:00.273Z,5.41
2022-11-25T05:18:26.776Z,5.46
2022-11-25T05:20:53.237Z,5.53
2022-11-25T05:23:19.790Z,5.49
2022-11-25T05:25:46.477Z,5.49
2022-11-25T05:28:13.000Z,5.52
2022-11-25T05:30:39.552Z,5.54
2022-11-25T05:33:06.048Z,5.44
2022-11-25T05:35:32.548Z,5.43
2022-11-25T05:38:01.073Z,5.37
2022-11-25T05:40:27.569Z,5.36
2022-11-25T05:42:54.083Z,5.33
2022-11-25T05:45:20.592Z,5.31
2022-11-25T05:47:47.061Z,5.29
2022-11-25T05:50:13.572Z,5.31
2022-11-25T05:52:40.059Z,5.35
2022-11-25T05:55:07.192Z,5.32
2022-11-25T05:57:33.675Z,5.36
2022-11-25T06:00:00.197Z,5.54
2022-11-25T06:02:26.808Z,5.62
2022-11-25T06:04:53.343Z,5.68
2022-11-25T06:07:19.862Z,5.53
2022-11-25T06:09:46.337Z,5.52
2022-11-25T06:12:12.805Z,5.53
2022-11-25T06:14:39.353Z,5.33
2022-11-25T06:17:05.826Z,5.42
2022-11-25T06:19:32.435Z,5.34
2022-11-25T06:21:59.111Z,5.33
2022-11-25T06:24:25.836Z,5.33
2022-11-25T06:26:52.631Z,5.32
2022-11-25T06:29:19.265Z,5.29
2022-11-25T06:31:45.866Z,5.22
2022-11-25T06:34:12.575Z,5.23
2022-11-25T06:36:39.182Z,5.17
2022-11-25T06:39:05.847Z,5.19
2022-11-25T06:41:32.391Z,5.25
2022-11-25T06:43:58.981Z,5.28
2022-11-25T06:46:25.733Z,5.45
2022-11-25T06:48:55.824Z,5.41
2022-11-25T06:51:24.610Z,5.41
2022-11-25T06:53:51.204Z,5.40
2022-11-25T06:56:23.644Z,5.37
2022-11-25T06:58:51.609Z,5.32
2022-11-25T07:01:27.300Z,5.38
2022-11-25T07:04:03.343Z,5.48
2022-11-25T07:06:31.540Z,5.59
2022-11-25T07:08:58.512Z,5.65
2022-11-25T07:11:32.311Z,5.75
2022-11-25T07:14:05.635Z,5.90
2022-11-25T07:16:33.536Z,5.99
2022-11-25T07:19:02.192Z,6.02
2022-11-25T07:21:32.313Z,6.05
2022-11-25T07:24:01.523Z,6.10
2022-11-25T07:26:31.305Z,6.11
2022-11-25T07:29:00.787Z,6.03
2022-11-25T07:31:33.499Z,6.04
2022-11-25T07:34:20.595Z,6.05
2022-11-25T07:36:49.374Z,6.04
2022-11-25T07:39:21.741Z,6.16
2022-11-25T07:41:53.119Z,6.15
2022-11-25T07:44:20.529Z,6.26
2022-11-25T07:46:49.231Z,6.31
2022-11-25T07:49:22.210Z,6.32
2022-11-25T07:51:54.260Z,6.32
2022-11-25T07:54:21.882Z,6.33
2022-11-25T07:56:49.827Z,6.49
2022-11-25T07:59:20.018Z,6.44
2022-11-25T08:01:48.567Z,6.62
2022-11-25T08:04:20.067Z,6.69
2022-11-25T08:06:49.821Z,6.85
2022-11-25T08:09:19.662Z,6.99
2022-11-25T08:11:47.119Z,7.06
2022-11-25T08:14:13.866Z,7.16
2022-11-25T08:16:40.522Z,7.09
2022-11-25T08:19:11.674Z,7.11
2022-11-25T08:21:38.511Z,7.08
2022-11-25T08:24:05.618Z,7.18
2022-11-25T08:26:38.602Z,7.24
2022-11-25T08:29:07.053Z,7.39
2022-11-25T08:31:38.533Z,7.47
2022-11-25T08:34:08.782Z,7.49
2022-11-25T08:36:35.869Z,7.54
2022-11-25T08:39:22.483Z,7.59
2022-11-25T08:41:52.913Z,7.55
2022-11-25T08:44:19.504Z,7.69
2022-11-25T08:46:46.388Z,7.68
2022-11-25T08:49:14.259Z,7.74
2022-11-25T08:51:40.951Z,7.80
2022-11-25T08:54:08.720Z,7.85
2022-11-25T08:56:35.690Z,7.86
2022-11-25T08:59:02.774Z,7.93
2022-11-25T09:01:29.822Z,7.96
2022-11-25T09:03:57.217Z,8.03
2022-11-25T09:06:26.284Z,8.08
2022-11-25T09:08:56.563Z,8.20
2022-11-25T09:11:24.233Z,8.31
2022-11-25T09:13:50.991Z,8.43
2022-11-25T09:16:17.658Z,8.54
2022-11-25T09:18:45.735Z,8.50
2022-11-25T09:21:16.412Z,8.56
2022-11-25T09:23:43.487Z,8.51
2022-11-25T09:26:23.438Z,8.65
2022-11-25T09:28:50.182Z,8.67
2022-11-25T09:31:17.019Z,8.77
2022-11-25T09:33:44.611Z,8.83
2022-11-25T09:36:13.267Z,8.88
2022-11-25T09:38:43.256Z,8.93
2022-11-25T09:41:59.358Z,8.94
2022-11-25T09:45:09.591Z,9.04
2022-11-25T09:47:43.564Z,9.05
2022-11-25T09:50:51.090Z,9.06
2022-11-25T09:53:43.366Z,9.08
2022-11-25T09:56:28.651Z,9.06
2022-11-25T09:59:20.543Z,9.15
2022-11-25T10:02:03.035Z,9.09
2022-11-25T10:04:38.169Z,9.11
2022-11-25T10:07:11.309Z,9.09
2022-11-25T10:09:38.218Z,9.16
2022-11-25T10:12:34.621Z,9.12
2022-11-25T10:15:13.284Z,9.09
2022-11-25T10:17:52.029Z,9.09
2022-11-25T10:20:26.545Z,9.13
2022-11-25T10:23:00.917Z,9.18
2022-11-25T10:25:46.031Z,9.24
2022-11-25T10:28:23.132Z,9.29
2022-11-25T10:30:52.725Z,9.36
2022-11-25T10:33:30.752Z,9.37
2022-11-25T10:36:06.797Z,9.45
2022-11-25T10:38:42.623Z,9.58
2022-11-25T10:41:15.796Z,9.64
2022-11-25T10:43:43.709Z,9.70
2022-11-25T10:46:22.533Z,9.74
2022-11-25T10:49:01.835Z,9.88
2022-11-25T10:51:47.534Z,10.01
2022-11-25T10:54:27.581Z,10.00
2022-11-25T10:57:18.875Z,9.96
2022-11-25T10:59:58.983Z,9.80
2022-11-25T11:02:34.716Z,9.79
2022-11-25T11:05:10.409Z,9.83
2022-11-25T11:07:40.952Z,9.78
2022-11-25T11:10:25.949Z,9.74
2022-11-25T11:13:02.597Z,9.71
2022-11-25T11:15:44.599Z,9.80
2022-11-25T11:18:25.056Z,10.00
2022-11-25T11:21:00.373Z,9.99
2022-11-25T11:23:28.941Z,10.08
2022-11-25T11:26:09.834Z,10.11
2022-11-25T11:28:37.268Z,10.18
2022-11-25T11:31:08.535Z,10.17
2022-11-25T11:33:48.783Z,10.07
2022-11-25T11:36:38.542Z,10.19
2022-11-25T11:39:23.918Z,10.14
2022-11-25T11:42:01.228Z,10.21
2022-11-25T11:44:40.246Z,10.15
2022-11-25T11:47:06.844Z,10.09
2022-11-25T11:50:03.127Z,10.03
2022-11-25T11:53:07.306Z,9.99
2022-11-25T11:56:11.927Z,9.93
2022-11-25T11:58:55.378Z,9.75
2022-11-25T12:01:30.736Z,9.75
2022-11-25T12:04:22.544Z,9.82
2022-11-25T12:07:27.203Z,9.69
2022-11-25T12:10:14.904Z,9.63
2022-11-25T12:13:00.408Z,9.74
2022-11-25T12:15:54.444Z,9.70
2022-11-25T12:18:48.197Z,9.70
2022-11-25T12:21:52.156Z,9.61
2022-11-25T12:24:51.097Z,9.54
2022-11-25T12:27:23.896Z,9.47
2022-11-25T12:30:13.708Z,9.48
2022-11-25T12:33:05.155Z,9.44
2022-11-25T12:35:57.367Z,9.31
2022-11-25T12:38:44.290Z,9.14
2022-11-25T12:41:23.012Z,9.04
2022-11-25T12:44:00.680Z,8.99
2022-11-25T12:46:33.177Z,8.92
2022-11-25T12:49:00.648Z,8.87
2022-11-25T12:51:54.362Z,8.86
2022-11-25T12:54:30.205Z,8.85
2022-11-25T12:57:30.736Z,8.79
2022-11-25T13:03:17.095Z,8.95
2022-11-25T13:05:49.567Z,8.98
2022-11-25T13:08:29.189Z,8.87
2022-11-25T13:11:15.885Z,8.88
2022-11-25T13:13:50.140Z,8.83
2022-11-25T13:16:19.715Z,8.80
2022-11-25T13:18:47.236Z,8.76
2022-11-25T13:21:15.623Z,8.73
2022-11-25T13:23:49.926Z,8.70
2022-11-25T13:26:28.754Z,8.68
2022-11-25T13:29:00.245Z,8.69
2022-11-25T13:31:35.208Z,8.65
2022-11-25T13:34:25.378Z,8.58
2022-11-25T13:36:53.352Z,8.54
2022-11-25T13:39:34.389Z,8.38
2022-11-25T13:42:12.885Z,8.31
2022-11-25T13:45:25.173Z,8.27
2022-11-25T13:47:53.161Z,8.22
2022-11-25T13:50:36.786Z,8.18
2022-11-25T13:53:21.314Z,8.24
2022-11-25T13:55:50.305Z,8.18
2022-11-25T13:58:19.375Z,8.12
2022-11-25T14:00:50.855Z,8.10
2022-11-25T14:03:20.509Z,8.14
2022-11-25T14:06:00.043Z,8.21
2022-11-25T14:08:35.705Z,8.25
2022-11-25T14:11:11.365Z,8.32
2022-11-25T14:13:57.698Z,8.37
2022-11-25T14:16:45.735Z,8.46
2022-11-25T14:22:40.741Z,8.10
2022-11-25T14:25:26.936Z,8.12
2022-11-25T14:28:18.903Z,7.90
2022-11-25T14:30:53.557Z,7.93
2022-11-25T14:34:01.593Z,7.97
2022-11-25T14:36:33.769Z,7.84
2022-11-25T14:39:06.247Z,7.84
2022-11-25T14:41:41.666Z,7.84
2022-11-25T14:44:17.192Z,7.72
2022-11-25T14:46:54.663Z,7.72
2022-11-25T14:49:46.684Z,7.65
2022-11-25T14:52:11.148Z,7.74
2022-11-25T14:54:43.462Z,7.72
2022-11-25T14:57:10.626Z,7.79
2022-11-25T14:59:43.683Z,7.66
2022-11-25T15:02:29.999Z,7.63
2022-11-25T15:05:08.396Z,7.57
2022-11-25T15:07:35.339Z,7.52
2022-11-25T15:10:02.060Z,7.57
2022-11-25T15:12:33.009Z,7.61
2022-11-25T15:15:00.135Z,7.58
2022-11-25T15:17:32.018Z,7.59
2022-11-25T15:20:03.844Z,7.49
2022-11-25T15:22:31.571Z,7.49
2022-11-25T15:25:08.329Z,7.50
2022-11-25T15:27:34.827Z,7.44
2022-11-25T15:30:01.316Z,7.44
2022-11-25T15:32:30.843Z,7.40
2022-11-25T15:35:00.407Z,7.39
2022-11-25T15:37:27.744Z,7.39
2022-11-25T15:40:31.952Z,7.35
2022-11-25T15:43:04.494Z,7.28
2022-11-25T15:46:00.823Z,7.15
2022-11-25T15:48:49.520Z,7.17
2022-11-25T15:51:49.020Z,7.15
2022-11-25T15:54:21.759Z,7.07
2022-11-25T15:56:51.219Z,7.14
2022-11-25T15:59:47.431Z,7.09
2022-11-25T16:02:34.366Z,6.96
2022-11-25T16:05:13.144Z,7.05
2022-11-25T16:07:51.932Z,7.01
2022-11-25T16:10:32.248Z,6.98
2022-11-25T16:13:23.895Z,7.02
2022-11-25T16:16:07.735Z,6.93
2022-11-25T16:18:41.206Z,6.97
2022-11-25T16:21:12.094Z,6.94
2022-11-25T16:23:47.434Z,6.95
2022-11-25T16:26:36.139Z,6.99
2022-11-25T16:29:15.552Z,7.04
2022-11-25T16:31:42.118Z,7.02
2022-11-25T16:34:17.301Z,7.04
2022-11-25T16:36:44.141Z,7.06
2022-11-25T16:39:10.854Z,6.99
2022-11-25T16:41:38.203Z,6.97
2022-11-25T16:44:08.699Z,7.00
2022-11-25T16:46:35.659Z,7.01
2022-11-25T16:49:12.860Z,7.05
2022-11-25T16:51:39.349Z,7.08
2022-11-25T16:54:05.866Z,7.12
2022-11-25T16:56:36.576Z,7.08
2022-11-25T16:59:03.562Z,6.98
2022-11-25T17:01:31.385Z,6.93
2022-11-25T17:03:57.903Z,6.89
2022-11-25T17:06:26.850Z,6.91
2022-11-25T17:08:53.393Z,6.95
2022-11-25T17:11:31.040Z,6.90
2022-11-25T17:14:02.581Z,6.96
2022-11-25T17:16:30.273Z,6.88
2022-11-25T17:18:59.620Z,6.87
2022-11-25T17:21:28.805Z,6.90
2022-11-25T17:24:00.625Z,6.96
2022-11-25T17:26:38.333Z,7.02
2022-11-25T17:29:12.324Z,7.03
2022-11-25T17:31:39.197Z,7.00
2022-11-25T17:34:06.109Z,7.01
2022-11-25T17:36:32.797Z,6.99
2022-11-25T17:38:59.446Z,6.95
2022-11-25T17:41:29.339Z,6.89
2022-11-25T17:43:56.081Z,6.94
2022-11-25T17:46:24.839Z,6.83
2022-11-25T17:48:51.433Z,6.87
2022-11-25T17:51:17.951Z,6.81
2022-11-25T17:53:44.926Z,6.75
2022-11-25T17:56:17.989Z,6.82
2022-11-25T17:58:44.913Z,6.71
2022-11-25T18:01:11.522Z,6.71
2022-11-25T18:03:38.296Z,6.82
2022-11-25T18:06:06.574Z,6.83
2022-11-25T18:08:33.522Z,6.74
2022-11-25T18:11:02.912Z,6.72
2022-11-25T18:13:35.802Z,6.70
2022-11-25T18:16:02.769Z,6.58
2022-11-25T18:18:29.330Z,6.55
2022-11-25T18:20:56.247Z,6.49
2022-11-25T18:23:23.016Z,6.42
2022-11-25T18:25:50.174Z,6.49
2022-11-25T18:28:20.797Z,6.55
2022-11-25T18:30:49.114Z,6.72
2022-11-25T18:33:17.426Z,6.70
2022-11-25T18:35:45.274Z,6.73
2022-11-25T18:38:12.512Z,6.74
2022-11-25T18:40:42.534Z,6.71
2022-11-25T18:43:17.090Z,6.69
2022-11-25T18:45:44.978Z,6.63
2022-11-25T18:48:15.821Z,6.64
2022-11-25T18:50:43.852Z,6.64
2022-11-25T18:53:10.402Z,6.54
2022-11-25T18:55:37.200Z,6.55
2022-11-25T18:58:04.411Z,6.49
2022-11-25T19:00:32.988Z,6.45
2022-11-25T19:03:00.366Z,6.38
2022-11-25T19:05:32.871Z,6.44
2022-11-25T19:08:00.689Z,6.36
2022-11-25T19:10:30.859Z,6.30
2022-11-25T19:13:03.047Z,6.22
2022-11-25T19:15:29.644Z,6.23
2022-11-25T19:18:02.110Z,6.21
2022-11-25T19:20:30.436Z,6.26
2022-11-25T19:23:00.822Z,6.23
2022-11-25T19:25:28.537Z,6.15
2022-11-25T19:27:59.052Z,6.16
2022-11-25T19:30:29.734Z,6.18
2022-11-25T19:32:59.697Z,6.13
2022-11-25T19:35:31.705Z,6.10
2022-11-25T19:37:58.273Z,6.08
2022-11-25T19:40:25.336Z,6.15
2022-11-25T19:42:52.015Z,6.15
2022-11-25T19:45:20.670Z,6.11
2022-11-25T19:47:50.858Z,6.20
2022-11-25T19:50:26.134Z,6.14
2022-11-25T19:52:53.585Z,6.17
2022-11-25T19:55:26.344Z,6.23
2022-11-25T19:57:53.377Z,6.21
2022-11-25T20:00:22.321Z,6.21
2022-11-25T20:02:52.460Z,6.15
2022-11-25T20:05:22.987Z,6.18
2022-11-25T20:07:49.646Z,6.29
2022-11-25T20:10:20.721Z,6.25
2022-11-25T20:12:48.017Z,6.21
2022-11-25T20:15:15.166Z,6.23
2022-11-25T20:17:48.028Z,6.21
2022-11-25T20:20:23.302Z,6.22
2022-11-25T20:23:07.230Z,6.22
2022-11-25T20:25:36.401Z,6.32
2022-11-25T20:28:02.976Z,6.32
2022-11-25T20:30:31.149Z,6.39
2022-11-25T20:32:57.697Z,6.55
2022-11-25T20:35:25.938Z,6.54
2022-11-25T20:37:57.800Z,6.64
2022-11-25T20:40:33.570Z,6.74
2022-11-25T20:43:00.376Z,6.76
2022-11-25T20:45:27.051Z,6.75
2022-11-25T20:47:53.707Z,6.77
2022-11-25T20:50:21.913Z,6.67
2022-11-25T20:52:50.421Z,6.68
2022-11-25T20:55:20.192Z,6.68
2022-11-25T20:57:47.802Z,6.64
2022-11-25T21:00:18.563Z,6.62
2022-11-25T21:02:45.349Z,6.55
2022-11-25T21:05:12.449Z,6.52
2022-11-25T21:07:39.493Z,6.47
2022-11-25T21:10:18.005Z,6.46
2022-11-25T21:12:44.657Z,6.37
2022-11-25T21:15:20.979Z,6.41
2022-11-25T21:17:47.665Z,6.39
2022-11-25T21:20:16.104Z,6.33
2022-11-25T21:22:46.487Z,6.43
2022-11-25T21:25:18.798Z,6.35
2022-11-25T21:27:47.548Z,6.17
2022-11-25T21:30:26.852Z,6.14
2022-11-25T21:32:59.405Z,6.15
2022-11-25T21:35:32.130Z,6.06
2022-11-25T21:38:03.301Z,6.02
2022-11-25T21:40:41.863Z,6.06
2022-11-25T21:43:21.436Z,6.12
2022-11-25T21:45:50.193Z,6.20
2022-11-25T21:48:22.626Z,6.27
2022-11-25T21:50:49.549Z,6.40
2022-11-25T21:53:16.408Z,6.46
2022-11-25T21:55:44.202Z,6.50
2022-11-25T21:58:18.540Z,6.55
2022-11-25T22:00:49.657Z,6.53
2022-11-25T22:03:18.838Z,6.57
2022-11-25T22:05:46.366Z,6.60
2022-11-25T22:08:13.101Z,6.64
2022-11-25T22:10:42.005Z,6.70
2022-11-25T22:13:17.239Z,6.72
2022-11-25T22:15:44.629Z,6.65
2022-11-25T22:18:21.891Z,6.65
2022-11-25T22:20:53.222Z,6.66
2022-11-25T22:23:21.163Z,6.62
2022-11-25T22:25:49.763Z,6.62
2022-11-25T22:28:19.328Z,6.80
2022-11-25T22:30:53.936Z,6.65
2022-11-25T22:33:26.266Z,6.61
2022-11-25T22:35:52.887Z,6.63
2022-11-25T22:38:19.534Z,6.65
2022-11-25T22:40:56.663Z,6.57
2022-11-25T22:43:29.786Z,6.53
2022-11-25T22:45:57.204Z,6.59
2022-11-25T22:48:36.106Z,6.73
2022-11-25T22:51:03.345Z,6.63
2022-11-25T22:53:30.292Z,6.52
2022-11-25T22:55:58.275Z,6.61
2022-11-25T22:58:27.055Z,6.72
2022-11-25T23:00:54.793Z,6.69
2022-11-25T23:03:22.787Z,6.68
2022-11-25T23:05:51.501Z,6.68
2022-11-25T23:08:29.426Z,6.77
2022-11-25T23:10:57.173Z,6.79
2022-11-25T23:13:24.490Z,6.82
2022-11-25T23:15:53.784Z,6.84
2022-11-25T23:18:26.765Z,6.83
2022-11-25T23:20:53.505Z,6.82
2022-11-25T23:23:23.372Z,6.79
2022-11-25T23:25:50.607Z,6.88
2022-11-25T23:28:17.422Z,6.79
2022-11-25T23:30:58.140Z,6.78
2022-11-25T23:33:33.577Z,6.80
2022-11-25T23:36:04.789Z,6.75
2022-11-25T23:38:44.426Z,6.80
2022-11-25T23:41:15.511Z,6.83
2022-11-25T23:43:42.224Z,6.70
2022-11-25T23:46:10.362Z,6.71
2022-11-25T23:48:36.979Z,6.74
2022-11-25T23:51:03.651Z,6.64
2022-11-25T23:53:33.235Z,6.78
2022-11-25T23:56:00.009Z,6.69
2022-11-25T23:58:26.631Z,6.72
